Time;durP1;ratioP1;P1;durP2;ratioP2;P2;SDS_P1;SDS_P2;PMS_P1;PMS_P2;Temp;Humidity;BMP_temperature;BMP_pressure;BME280_temperature;BME280_humidity;BME280_pressure;Samples;Min_cycle;Max_cycle;Signal;HPM_P1;HPM_P2
2023/09/09 00:01:08;;;;;;;32.67;22.45;;;20.50;99.90;;;;;;4966558;28;20212;-70
2023/09/09 00:03:34;;;;;;;27.92;22.77;;;20.50;99.90;;;;;;4975092;28;20234;-70
2023/09/09 00:06:11;;;;;;;33.00;25.95;;;20.50;99.90;;;;;;4973806;28;20182;-70
2023/09/09 00:08:37;;;;;;;34.53;26.00;;;20.40;99.90;;;;;;4970741;28;20545;-70
2023/09/09 00:11:04;;;;;;;35.65;27.83;;;20.40;99.90;;;;;;4972604;28;20354;-70
2023/09/09 00:13:30;;;;;;;37.58;28.13;;;20.40;99.90;;;;;;4963636;28;20178;-70
2023/09/09 00:15:57;;;;;;;35.83;28.05;;;20.40;99.90;;;;;;4973277;28;20185;-70
2023/09/09 00:18:23;;;;;;;36.35;27.48;;;20.40;99.90;;;;;;4966199;28;20190;-69
2023/09/09 00:20:49;;;;;;;40.50;26.35;;;20.40;99.90;;;;;;4969971;28;20194;-71
2023/09/09 00:23:15;;;;;;;36.58;27.13;;;20.30;99.90;;;;;;4964566;28;20209;-72
2023/09/09 00:25:42;;;;;;;34.50;26.83;;;20.30;99.90;;;;;;4974618;28;20280;-72
2023/09/09 00:28:10;;;;;;;36.13;27.27;;;20.30;99.90;;;;;;4969406;28;20190;-70
2023/09/09 00:30:36;;;;;;;33.63;26.17;;;20.30;99.90;;;;;;4971991;28;20642;-70
2023/09/09 00:33:03;;;;;;;36.03;25.80;;;20.20;99.90;;;;;;4961268;28;20237;-72
2023/09/09 00:35:32;;;;;;;31.27;24.55;;;20.20;99.90;;;;;;4965839;28;20194;-72
2023/09/09 00:37:57;;;;;;;32.22;23.83;;;20.20;99.90;;;;;;4960176;28;20197;-72
2023/09/09 00:40:24;;;;;;;32.28;24.27;;;20.20;99.90;;;;;;4974222;28;20190;-73
2023/09/09 00:42:50;;;;;;;30.15;22.67;;;20.20;99.90;;;;;;4969225;28;20744;-71
2023/09/09 00:45:16;;;;;;;34.10;22.70;;;20.20;99.90;;;;;;4967343;28;20273;-71
2023/09/09 00:47:43;;;;;;;31.95;22.85;;;20.10;99.90;;;;;;4962164;28;20187;-72
2023/09/09 00:50:11;;;;;;;25.73;22.35;;;20.10;99.90;;;;;;4971894;28;20217;-72
2023/09/09 00:52:38;;;;;;;29.02;23.05;;;20.10;99.90;;;;;;4986185;28;20194;-72
2023/09/09 00:55:06;;;;;;;35.38;24.55;;;20.10;99.90;;;;;;4965550;28;20240;-72
2023/09/09 00:57:33;;;;;;;30.65;24.45;;;20.00;99.90;;;;;;4955517;28;20195;-70
2023/09/09 01:00:03;;;;;;;33.58;24.25;;;20.00;99.90;;;;;;4967584;28;20685;-72
2023/09/09 01:02:29;;;;;;;35.38;24.40;;;20.00;99.90;;;;;;4957887;28;20222;-73
2023/09/09 01:04:59;;;;;;;30.15;22.80;;;20.00;99.90;;;;;;4988904;28;20260;-72
2023/09/09 01:07:27;;;;;;;30.48;23.27;;;20.00;99.90;;;;;;4974251;28;20178;-71
2023/09/09 01:09:53;;;;;;;29.52;22.67;;;20.00;99.90;;;;;;4973033;28;20926;-72
2023/09/09 01:12:22;;;;;;;29.42;23.60;;;19.90;99.90;;;;;;4964030;28;20284;-72
2023/09/09 01:14:48;;;;;;;30.55;23.23;;;19.90;99.90;;;;;;4969792;28;20324;-73
2023/09/09 01:17:14;;;;;;;29.40;21.70;;;19.90;99.90;;;;;;4962729;28;20198;-73
2023/09/09 01:19:40;;;;;;;28.35;22.27;;;19.90;99.90;;;;;;4972895;28;20252;-73
2023/09/09 01:22:11;;;;;;;29.95;21.73;;;19.90;99.90;;;;;;4968961;28;20217;-72
2023/09/09 01:24:40;;;;;;;28.95;23.02;;;19.90;99.90;;;;;;4971941;28;20730;-71
2023/09/09 01:27:06;;;;;;;29.67;22.05;;;19.90;99.90;;;;;;4991988;28;20190;-72
2023/09/09 01:29:32;;;;;;;31.08;22.27;;;19.80;99.90;;;;;;4982468;28;20647;-72
2023/09/09 01:31:58;;;;;;;28.20;21.52;;;19.80;99.90;;;;;;4959134;28;20281;-72
2023/09/09 01:34:25;;;;;;;30.83;22.33;;;19.80;99.90;;;;;;4965490;28;20190;-71
2023/09/09 01:36:51;;;;;;;32.72;22.30;;;19.80;99.90;;;;;;4960895;28;20214;-72
2023/09/09 01:39:17;;;;;;;25.48;21.58;;;19.80;99.90;;;;;;4962171;28;20217;-72
2023/09/09 01:41:43;;;;;;;30.30;22.25;;;19.80;99.90;;;;;;4969342;28;20241;-72
2023/09/09 01:44:09;;;;;;;28.17;22.38;;;19.80;99.90;;;;;;4965940;28;20201;-72
2023/09/09 01:46:35;;;;;;;28.35;21.45;;;19.80;99.90;;;;;;4967294;28;20194;-72
2023/09/09 01:49:03;;;;;;;33.17;22.73;;;19.80;99.90;;;;;;4964196;28;20273;-71
2023/09/09 01:51:32;;;;;;;27.63;22.40;;;19.70;99.90;;;;;;4988549;28;20194;-71
2023/09/09 01:53:58;;;;;;;31.25;23.55;;;19.80;99.90;;;;;;4961394;28;20183;-71
2023/09/09 01:56:24;;;;;;;36.13;24.25;;;19.70;99.90;;;;;;4968031;28;20285;-71
2023/09/09 01:58:50;;;;;;;32.10;23.70;;;19.80;99.90;;;;;;4967880;28;20265;-71
2023/09/09 02:01:16;;;;;;;32.90;24.23;;;19.70;99.90;;;;;;4953350;28;20205;-70
2023/09/09 02:03:42;;;;;;;29.75;24.40;;;19.70;99.90;;;;;;4988528;28;20225;-72
2023/09/09 02:06:08;;;;;;;30.27;23.40;;;19.70;99.90;;;;;;4962555;28;20213;-72
2023/09/09 02:08:34;;;;;;;35.83;23.67;;;19.70;99.90;;;;;;4969259;28;20189;-71
2023/09/09 02:11:00;;;;;;;32.58;22.95;;;19.70;99.90;;;;;;4955084;28;21467;-70
2023/09/09 02:13:26;;;;;;;30.90;24.83;;;19.70;99.90;;;;;;4968069;28;20671;-71
2023/09/09 02:15:52;;;;;;;33.80;25.27;;;19.70;99.90;;;;;;4986271;28;20220;-72
2023/09/09 02:18:18;;;;;;;35.70;26.60;;;19.70;99.90;;;;;;4963335;28;20178;-72
2023/09/09 02:20:45;;;;;;;32.85;26.77;;;19.70;99.90;;;;;;4969876;28;20184;-72
2023/09/09 02:23:12;;;;;;;36.95;27.95;;;19.70;99.90;;;;;;4971402;28;20751;-71
2023/09/09 02:25:38;;;;;;;39.40;29.17;;;19.70;99.90;;;;;;4969783;28;20193;-73
2023/09/09 02:28:04;;;;;;;40.90;29.92;;;19.70;99.90;;;;;;4931206;28;20189;-72
2023/09/09 02:30:31;;;;;;;39.95;31.10;;;19.60;99.90;;;;;;4971344;28;20190;-73
2023/09/09 02:32:57;;;;;;;43.05;31.27;;;19.60;99.90;;;;;;4961369;28;20659;-73
2023/09/09 02:35:23;;;;;;;44.83;32.40;;;19.60;99.90;;;;;;4971467;28;20285;-71
2023/09/09 02:37:49;;;;;;;43.03;31.80;;;19.60;99.90;;;;;;4967491;28;20186;-72
2023/09/09 02:40:15;;;;;;;42.67;32.67;;;19.60;99.90;;;;;;4968121;28;20189;-72
2023/09/09 02:42:41;;;;;;;45.50;34.13;;;19.60;99.90;;;;;;4958074;28;20249;-71
2023/09/09 02:45:08;;;;;;;41.53;31.13;;;19.60;99.90;;;;;;4971428;28;20257;-71
2023/09/09 02:47:34;;;;;;;41.00;31.65;;;19.50;99.90;;;;;;4968656;28;20269;-72
2023/09/09 02:50:00;;;;;;;42.40;30.83;;;19.50;99.90;;;;;;4964598;28;20289;-72
2023/09/09 02:52:26;;;;;;;37.30;29.80;;;19.50;99.90;;;;;;4971545;28;20197;-73
2023/09/09 02:54:52;;;;;;;43.65;30.42;;;19.50;99.90;;;;;;4971556;28;20189;-73
2023/09/09 02:57:19;;;;;;;43.53;33.45;;;19.50;99.90;;;;;;4967563;28;20190;-73
2023/09/09 02:59:45;;;;;;;46.13;34.03;;;19.50;99.90;;;;;;4957423;28;20600;-71
2023/09/09 03:02:13;;;;;;;47.33;34.58;;;19.50;99.90;;;;;;4961381;28;20210;-71
2023/09/09 03:04:39;;;;;;;44.17;34.15;;;19.50;99.90;;;;;;4987775;28;20205;-71
2023/09/09 03:07:05;;;;;;;44.05;33.22;;;19.40;99.90;;;;;;4967751;28;20189;-72
2023/09/09 03:09:36;;;;;;;45.60;31.65;;;19.40;99.90;;;;;;4984891;28;20190;-71
2023/09/09 03:12:05;;;;;;;41.75;31.10;;;19.40;99.90;;;;;;4949826;28;20193;-72
2023/09/09 03:14:31;;;;;;;37.70;29.10;;;19.40;99.90;;;;;;4968107;28;20233;-73
2023/09/09 03:16:58;;;;;;;44.72;31.58;;;19.40;99.90;;;;;;4964344;28;20218;-72
2023/09/09 03:19:25;;;;;;;37.83;30.23;;;19.40;99.90;;;;;;4960741;28;20186;-72
2023/09/09 03:21:51;;;;;;;40.13;30.65;;;19.30;99.90;;;;;;4969768;28;20216;-71
2023/09/09 03:24:17;;;;;;;38.83;29.65;;;19.30;99.90;;;;;;4967624;28;20194;-72
2023/09/09 03:26:43;;;;;;;38.50;29.48;;;19.30;99.90;;;;;;4956564;28;20286;-73
2023/09/09 03:29:09;;;;;;;40.58;29.90;;;19.30;99.90;;;;;;4987047;28;20633;-73
2023/09/09 03:31:35;;;;;;;39.42;29.38;;;19.30;99.90;;;;;;4959796;28;20190;-72
2023/09/09 03:34:01;;;;;;;38.65;29.80;;;19.30;99.90;;;;;;4963608;28;20551;-72
2023/09/09 03:36:27;;;;;;;38.50;29.23;;;19.30;99.90;;;;;;4967532;28;20190;-71
2023/09/09 03:38:53;;;;;;;46.40;28.08;;;19.30;99.90;;;;;;4971997;28;20182;-71
2023/09/09 03:41:18;;;;;;;37.53;27.70;;;19.30;99.90;;;;;;4967382;28;20249;-72
2023/09/09 03:43:45;;;;;;;35.83;27.38;;;19.30;99.90;;;;;;4960823;28;20226;-72
2023/09/09 03:46:11;;;;;;;39.60;28.60;;;19.30;99.90;;;;;;4952975;28;20333;-72
2023/09/09 03:48:38;;;;;;;34.05;28.23;;;19.20;99.90;;;;;;4965685;28;20196;-72
2023/09/09 03:51:03;;;;;;;43.25;29.25;;;19.30;99.90;;;;;;4965107;28;20191;-72
2023/09/09 03:53:31;;;;;;;35.08;28.52;;;19.30;99.90;;;;;;4961238;28;20194;-72
2023/09/09 03:56:00;;;;;;;40.83;29.33;;;19.20;99.90;;;;;;4963808;28;20197;-71
2023/09/09 03:58:26;;;;;;;42.03;30.27;;;19.20;99.90;;;;;;4969433;28;20193;-73
2023/09/09 04:01:09;;;;;;;38.58;29.55;;;19.20;99.90;;;;;;4977122;28;20194;-72
2023/09/09 04:03:37;;;;;;;39.63;29.30;;;19.20;99.90;;;;;;4962161;28;20583;-71
2023/09/09 04:06:06;;;;;;;36.78;29.15;;;19.20;99.90;;;;;;4978213;28;20281;-72
2023/09/09 04:08:33;;;;;;;44.30;30.10;;;19.20;99.90;;;;;;4965710;28;20245;-72
2023/09/09 04:11:01;;;;;;;40.25;30.90;;;19.20;99.90;;;;;;4970122;28;20719;-71
2023/09/09 04:13:27;;;;;;;40.92;30.52;;;19.20;99.90;;;;;;4960177;28;20215;-72
2023/09/09 04:15:58;;;;;;;42.22;30.85;;;19.20;99.90;;;;;;4970343;28;20898;-72
2023/09/09 04:18:26;;;;;;;41.38;30.95;;;19.10;99.90;;;;;;4968576;28;20201;-72
2023/09/09 04:20:52;;;;;;;44.10;30.83;;;19.10;99.90;;;;;;4960783;28;20182;-72
2023/09/09 04:23:18;;;;;;;43.38;30.75;;;19.10;99.90;;;;;;4965338;28;20214;-72
2023/09/09 04:25:45;;;;;;;44.97;31.17;;;19.10;99.90;;;;;;4968191;28;20691;-73
2023/09/09 04:28:12;;;;;;;40.55;31.60;;;19.10;99.90;;;;;;4987109;28;20194;-73
2023/09/09 04:30:40;;;;;;;41.17;31.23;;;19.10;99.90;;;;;;4969224;28;20460;-72
2023/09/09 04:33:11;;;;;;;41.03;30.80;;;19.10;99.90;;;;;;4964178;28;20188;-72
2023/09/09 04:35:41;;;;;;;44.35;32.35;;;19.00;99.90;;;;;;4973533;28;20190;-73
2023/09/09 04:38:08;;;;;;;44.00;32.95;;;19.00;99.90;;;;;;4955853;28;20192;-74
2023/09/09 04:40:34;;;;;;;43.78;33.00;;;19.00;99.90;;;;;;4973011;28;20212;-73
2023/09/09 04:43:00;;;;;;;43.05;31.67;;;19.00;99.90;;;;;;4964547;28;20218;-72
2023/09/09 04:45:26;;;;;;;44.45;33.10;;;19.00;99.90;;;;;;4963306;28;20276;-70
2023/09/09 04:47:52;;;;;;;42.88;32.67;;;19.00;99.90;;;;;;4983132;28;20196;-71
2023/09/09 04:50:20;;;;;;;40.55;32.80;;;19.00;99.90;;;;;;4972458;28;20274;-70
2023/09/09 04:52:47;;;;;;;43.75;34.22;;;18.90;99.90;;;;;;4963247;28;20175;-71
2023/09/09 04:55:14;;;;;;;45.83;33.97;;;18.90;99.90;;;;;;4958610;28;20190;-70
2023/09/09 04:57:40;;;;;;;46.53;31.88;;;18.90;99.90;;;;;;4972685;28;20221;-69
2023/09/09 05:00:08;;;;;;;48.13;34.92;;;18.90;99.90;;;;;;4973683;28;20214;-69
2023/09/09 05:02:35;;;;;;;48.72;34.88;;;18.90;99.90;;;;;;4959403;28;20206;-70
2023/09/09 05:05:04;;;;;;;44.40;34.38;;;18.90;99.90;;;;;;4967264;28;20196;-70
2023/09/09 05:07:34;;;;;;;47.55;34.55;;;18.90;99.90;;;;;;4966318;28;20264;-70
2023/09/09 05:10:04;;;;;;;52.95;34.03;;;18.90;99.90;;;;;;4981020;28;20193;-71
2023/09/09 05:12:32;;;;;;;41.47;33.17;;;18.90;99.90;;;;;;4969421;28;20184;-71
2023/09/09 05:14:58;;;;;;;45.30;33.40;;;18.90;99.90;;;;;;4969662;28;20225;-71
2023/09/09 05:17:25;;;;;;;46.38;32.80;;;18.90;99.90;;;;;;4972883;28;20221;-71
2023/09/09 05:19:51;;;;;;;43.78;33.17;;;18.90;99.90;;;;;;4968829;28;20674;-72
2023/09/09 05:22:17;;;;;;;51.40;34.15;;;18.90;99.90;;;;;;4969383;28;20217;-71
2023/09/09 05:24:43;;;;;;;47.10;34.20;;;19.00;99.90;;;;;;4968467;28;20202;-73
2023/09/09 05:27:09;;;;;;;46.38;33.55;;;18.90;99.90;;;;;;4969296;28;20190;-73
2023/09/09 05:29:35;;;;;;;48.60;33.78;;;19.00;99.90;;;;;;4968442;28;20559;-72
2023/09/09 05:32:01;;;;;;;49.15;34.67;;;19.00;99.90;;;;;;4968509;28;20666;-72
2023/09/09 05:34:28;;;;;;;42.92;32.53;;;19.00;99.90;;;;;;4966191;28;20203;-70
2023/09/09 05:36:54;;;;;;;50.25;33.42;;;19.10;99.90;;;;;;4948818;28;20284;-72
2023/09/09 05:39:20;;;;;;;47.50;32.60;;;19.10;99.90;;;;;;4965154;28;20276;-71
2023/09/09 05:41:46;;;;;;;48.22;35.20;;;19.10;99.90;;;;;;4970912;28;20674;-70
2023/09/09 05:44:13;;;;;;;44.35;31.88;;;19.20;99.90;;;;;;4966310;28;20183;-71
2023/09/09 05:46:39;;;;;;;41.63;31.27;;;19.20;99.90;;;;;;4986463;28;20534;-70
2023/09/09 05:49:06;;;;;;;47.05;31.38;;;19.30;99.90;;;;;;4968234;28;20229;-80
2023/09/09 05:51:32;;;;;;;45.90;32.20;;;19.30;99.90;;;;;;4965848;28;20186;-73
2023/09/09 05:54:00;;;;;;;43.60;31.17;;;19.30;99.90;;;;;;4968678;28;20202;-73
2023/09/09 05:56:27;;;;;;;43.67;31.38;;;19.40;99.90;;;;;;4951309;28;20624;-72
2023/09/09 05:58:54;;;;;;;64.32;44.65;;;19.40;99.90;;;;;;4969510;28;20194;-71
2023/09/09 06:01:20;;;;;;;40.00;30.40;;;19.50;99.90;;;;;;4966870;28;20209;-72
2023/09/09 06:03:46;;;;;;;49.13;31.10;;;19.50;99.90;;;;;;4972247;28;20222;-71
2023/09/09 06:06:12;;;;;;;44.20;29.70;;;19.60;99.90;;;;;;4961490;28;20186;-73
2023/09/09 06:08:38;;;;;;;40.65;30.15;;;19.70;99.90;;;;;;4959301;28;20194;-74
2023/09/09 06:11:04;;;;;;;44.55;30.35;;;19.70;99.90;;;;;;4968905;28;20197;-73
2023/09/09 06:13:31;;;;;;;44.47;31.67;;;19.70;99.90;;;;;;4967640;28;20182;-72
2023/09/09 06:15:57;;;;;;;45.00;31.27;;;19.80;99.90;;;;;;4968071;28;20226;-74
2023/09/09 06:18:23;;;;;;;39.42;30.60;;;19.90;99.90;;;;;;4970985;28;20312;-71
2023/09/09 06:20:52;;;;;;;43.05;30.67;;;19.90;99.90;;;;;;4972051;28;20665;-72
2023/09/09 06:23:19;;;;;;;45.10;31.55;;;20.00;99.90;;;;;;4957624;28;20694;-71
2023/09/09 06:25:45;;;;;;;38.17;30.23;;;20.00;99.90;;;;;;4972581;28;20406;-73
2023/09/09 06:28:11;;;;;;;40.58;30.63;;;20.10;99.90;;;;;;4949304;28;20186;-70
2023/09/09 06:30:42;;;;;;;40.67;30.13;;;20.10;99.90;;;;;;4967710;28;20201;-70
2023/09/09 06:33:09;;;;;;;42.08;30.45;;;20.20;99.90;;;;;;4968004;28;20197;-68
2023/09/09 06:35:35;;;;;;;40.88;30.80;;;20.30;99.90;;;;;;4967912;28;20187;-69
2023/09/09 06:38:02;;;;;;;41.90;29.98;;;20.40;99.90;;;;;;4973244;28;20186;-71
2023/09/09 06:40:30;;;;;;;44.80;31.52;;;20.40;99.90;;;;;;4972804;28;20662;-68
2023/09/09 06:42:56;;;;;;;37.80;30.33;;;20.50;99.90;;;;;;4974312;28;20343;-72
2023/09/09 06:45:22;;;;;;;45.13;31.10;;;20.50;99.90;;;;;;4967996;28;20273;-71
2023/09/09 06:47:48;;;;;;;44.63;31.63;;;20.60;99.90;;;;;;4963779;28;20201;-72
2023/09/09 06:50:14;;;;;;;42.75;31.35;;;20.60;99.90;;;;;;4978997;28;20264;-73
2023/09/09 06:52:40;;;;;;;44.38;32.40;;;20.70;99.90;;;;;;4970251;28;20663;-72
2023/09/09 06:55:07;;;;;;;46.80;32.38;;;20.80;99.90;;;;;;4964748;28;20193;-71
2023/09/09 06:57:33;;;;;;;51.90;33.45;;;20.90;99.90;;;;;;4963736;28;20185;-72
2023/09/09 06:59:59;;;;;;;44.10;33.30;;;20.90;99.90;;;;;;4969484;28;20717;-73
2023/09/09 07:02:25;;;;;;;48.90;34.17;;;21.00;99.90;;;;;;4961769;28;20344;-71
2023/09/09 07:04:53;;;;;;;45.53;35.08;;;21.10;99.90;;;;;;4972434;28;20531;-70
2023/09/09 07:07:19;;;;;;;42.40;33.13;;;21.10;99.90;;;;;;4968296;28;20190;-72
2023/09/09 07:09:45;;;;;;;48.90;35.22;;;21.20;99.90;;;;;;4968200;28;20591;-72
2023/09/09 07:12:11;;;;;;;47.05;34.30;;;21.20;99.90;;;;;;4965948;28;20198;-72
2023/09/09 07:14:37;;;;;;;43.75;34.25;;;21.30;99.90;;;;;;4972490;28;20320;-70
2023/09/09 07:17:04;;;;;;;44.08;34.72;;;21.30;99.90;;;;;;4953121;28;20198;-72
2023/09/09 07:19:30;;;;;;;54.53;36.25;;;21.40;99.90;;;;;;4963862;28;20197;-71
2023/09/09 07:21:55;;;;;;;52.15;36.58;;;21.40;99.90;;;;;;4968093;28;20581;-62
2023/09/09 07:24:21;;;;;;;48.25;35.42;;;21.40;99.90;;;;;;4968112;28;20194;-63
2023/09/09 07:26:48;;;;;;;50.00;36.55;;;21.40;99.90;;;;;;4950153;28;20608;-63
2023/09/09 07:29:14;;;;;;;50.50;36.63;;;21.50;99.90;;;;;;4971851;28;20698;-65
2023/09/09 07:31:40;;;;;;;48.03;36.10;;;21.50;99.90;;;;;;4967520;28;20186;-64
2023/09/09 07:34:06;;;;;;;51.13;36.55;;;21.50;99.90;;;;;;4974752;28;20662;-67
2023/09/09 07:36:32;;;;;;;47.17;35.83;;;21.60;99.90;;;;;;4969856;28;20186;-63
2023/09/09 07:38:57;;;;;;;47.97;36.30;;;21.60;99.90;;;;;;4966974;28;20542;-66
2023/09/09 07:41:23;;;;;;;48.13;35.70;;;21.70;99.90;;;;;;4972917;28;20587;-62
2023/09/09 07:43:49;;;;;;;50.67;35.97;;;21.80;99.90;;;;;;4973908;28;20589;-64
2023/09/09 07:46:15;;;;;;;50.25;37.45;;;21.80;99.90;;;;;;4972652;28;20603;-69
2023/09/09 07:48:41;;;;;;;50.65;36.75;;;21.90;99.90;;;;;;4964013;28;20182;-64
2023/09/09 07:51:07;;;;;;;49.50;37.97;;;21.90;99.90;;;;;;4964768;28;20178;-65
2023/09/09 07:53:33;;;;;;;52.28;38.35;;;22.00;99.90;;;;;;4969384;28;20178;-64
2023/09/09 07:55:59;;;;;;;50.85;35.45;;;22.00;99.90;;;;;;4967442;28;20194;-63
2023/09/09 07:58:25;;;;;;;48.67;36.92;;;22.10;99.90;;;;;;4969304;28;20289;-65
2023/09/09 08:01:06;;;;;;;50.83;36.42;;;22.10;99.90;;;;;;4975288;28;20190;-63
2023/09/09 08:03:32;;;;;;;51.08;36.22;;;22.30;99.90;;;;;;4968003;28;20305;-64
2023/09/09 08:06:02;;;;;;;48.33;36.28;;;22.30;99.90;;;;;;4964123;28;20499;-65
2023/09/09 08:08:29;;;;;;;58.28;38.25;;;22.30;99.90;;;;;;4965719;28;20651;-63
2023/09/09 08:10:55;;;;;;;48.70;37.65;;;22.40;99.90;;;;;;4971112;28;20675;-65
2023/09/09 08:13:23;;;;;;;46.67;36.08;;;22.50;99.90;;;;;;4971064;28;20191;-63
2023/09/09 08:15:49;;;;;;;53.35;38.15;;;22.50;99.90;;;;;;4974661;28;20233;-63
2023/09/09 08:18:15;;;;;;;46.60;36.28;;;22.60;99.90;;;;;;4966641;28;20225;-64
2023/09/09 08:20:41;;;;;;;48.03;35.63;;;22.70;99.90;;;;;;4972821;28;20704;-64
2023/09/09 08:23:08;;;;;;;50.65;37.30;;;22.70;99.90;;;;;;4973465;28;20716;-62
2023/09/09 08:25:34;;;;;;;42.83;34.85;;;22.80;99.90;;;;;;4964073;28;20256;-65
2023/09/09 08:28:03;;;;;;;42.67;33.25;;;22.90;99.90;;;;;;4970695;28;20209;-63
2023/09/09 08:30:30;;;;;;;43.65;32.65;;;22.90;99.90;;;;;;4969551;28;20190;-63
2023/09/09 08:32:56;;;;;;;55.60;34.83;;;23.00;99.90;;;;;;4974446;28;20189;-63
2023/09/09 08:35:23;;;;;;;47.30;37.25;;;23.10;99.90;;;;;;4965668;28;20197;-63
2023/09/09 08:37:50;;;;;;;43.25;33.08;;;23.20;99.90;;;;;;4973740;28;20209;-62
2023/09/09 08:40:16;;;;;;;43.53;31.30;;;23.20;99.90;;;;;;4968900;28;20191;-63
2023/09/09 08:42:56;;;;;;;42.70;30.50;;;23.30;99.90;;;;;;4968814;28;20296;-63
2023/09/09 08:45:34;;;;;;;37.67;29.95;;;23.30;99.90;;;;;;4963767;28;20194;-71
2023/09/09 08:48:05;;;;;;;43.05;29.05;;;23.40;99.90;;;;;;4968027;28;20194;-65
2023/09/09 08:50:33;;;;;;;40.17;29.95;;;23.50;99.90;;;;;;4981236;28;20631;-63
2023/09/09 08:53:02;;;;;;;39.42;28.10;;;23.60;99.90;;;;;;4970503;28;20225;-63
2023/09/09 08:55:28;;;;;;;41.60;29.15;;;23.60;99.90;;;;;;4964844;28;20182;-62
2023/09/09 08:57:54;;;;;;;37.40;29.42;;;23.70;99.90;;;;;;4973667;28;20188;-63
2023/09/09 09:00:20;;;;;;;40.00;29.33;;;23.70;99.90;;;;;;4969552;28;20213;-64
2023/09/09 09:02:50;;;;;;;38.60;27.58;;;23.80;99.90;;;;;;4972007;28;20289;-63
2023/09/09 09:05:17;;;;;;;33.42;24.25;;;23.90;99.90;;;;;;4966822;28;20201;-61
2023/09/09 09:07:43;;;;;;;35.88;26.75;;;23.90;99.90;;;;;;4972098;28;20194;-60
2023/09/09 09:10:09;;;;;;;34.80;25.90;;;24.00;99.90;;;;;;4968569;28;20197;-62
2023/09/09 09:12:36;;;;;;;31.50;25.58;;;24.10;99.90;;;;;;4972976;28;20548;-67
2023/09/09 09:15:03;;;;;;;35.30;24.65;;;24.20;99.90;;;;;;4965897;28;20691;-62
2023/09/09 09:17:32;;;;;;;32.85;24.42;;;24.20;99.90;;;;;;4988478;28;20197;-63
2023/09/09 09:19:58;;;;;;;31.20;24.70;;;24.20;99.90;;;;;;4966356;28;20186;-62
2023/09/09 09:22:24;;;;;;;33.50;24.73;;;24.30;99.90;;;;;;4963205;28;20206;-65
2023/09/09 09:24:50;;;;;;;33.15;23.65;;;24.40;99.90;;;;;;4966448;28;20198;-63
2023/09/09 09:27:16;;;;;;;27.55;22.17;;;24.50;99.90;;;;;;4963617;28;20235;-64
2023/09/09 09:29:48;;;;;;;28.35;21.10;;;24.50;99.90;;;;;;4967356;28;20205;-64
2023/09/09 09:32:16;;;;;;;28.38;21.70;;;24.60;99.90;;;;;;4989180;28;20244;-64
2023/09/09 09:34:43;;;;;;;30.83;21.70;;;24.70;99.90;;;;;;4969320;28;20201;-62
2023/09/09 09:37:15;;;;;;;29.30;23.33;;;24.70;99.90;;;;;;4972311;28;20181;-62
2023/09/09 09:39:41;;;;;;;29.70;23.15;;;24.80;99.90;;;;;;4969564;28;20716;-62
2023/09/09 09:42:10;;;;;;;30.85;23.52;;;24.90;99.90;;;;;;4964815;28;20222;-62
2023/09/09 09:44:36;;;;;;;33.38;24.70;;;25.00;99.90;;;;;;4966387;28;20198;-66
2023/09/09 09:47:08;;;;;;;31.25;24.83;;;25.00;99.90;;;;;;4968669;28;20645;-64
2023/09/09 09:49:42;;;;;;;31.27;24.20;;;25.10;99.90;;;;;;4966650;28;20189;-63
2023/09/09 09:52:09;;;;;;;39.25;25.52;;;25.10;99.90;;;;;;4952460;28;20213;-62
2023/09/09 09:54:36;;;;;;;31.83;23.55;;;25.20;99.90;;;;;;4969191;28;20205;-61
2023/09/09 09:57:05;;;;;;;32.08;24.27;;;25.30;99.90;;;;;;4972530;28;20194;-62
2023/09/09 09:59:35;;;;;;;34.05;25.13;;;25.30;99.90;;;;;;4972815;28;20197;-64
2023/09/09 10:02:03;;;;;;;30.77;25.50;;;25.40;99.90;;;;;;4970658;28;20201;-65
2023/09/09 10:04:40;;;;;;;32.30;26.90;;;25.40;99.90;;;;;;4967007;28;20659;-63
2023/09/09 10:07:13;;;;;;;36.45;26.95;;;25.50;99.90;;;;;;4962295;28;20185;-64
2023/09/09 10:09:52;;;;;;;36.88;28.88;;;25.50;99.90;;;;;;4965662;28;20185;-63
2023/09/09 10:12:37;;;;;;;40.65;27.88;;;25.60;99.90;;;;;;4972985;28;20200;-62
2023/09/09 10:15:05;;;;;;;38.38;26.77;;;25.60;99.90;;;;;;4967204;28;20249;-62
2023/09/09 10:17:32;;;;;;;44.08;28.83;;;25.60;99.90;;;;;;4971766;28;20198;-62
2023/09/09 10:20:01;;;;;;;40.35;30.15;;;25.70;99.90;;;;;;4971459;28;20217;-61
2023/09/09 10:22:28;;;;;;;41.83;30.15;;;25.70;99.90;;;;;;4968643;28;20296;-63
2023/09/09 10:24:56;;;;;;;40.15;31.45;;;25.80;99.90;;;;;;4962455;28;20233;-64
2023/09/09 10:27:22;;;;;;;43.80;32.97;;;25.80;99.90;;;;;;4972125;28;20190;-62
2023/09/09 10:29:50;;;;;;;43.20;32.63;;;25.80;99.90;;;;;;4972740;28;20197;-62
2023/09/09 10:32:19;;;;;;;41.30;30.80;;;25.80;99.90;;;;;;4967507;28;20178;-63
2023/09/09 10:34:46;;;;;;;40.40;31.10;;;25.90;99.90;;;;;;4970980;28;20185;-63
2023/09/09 10:37:15;;;;;;;43.65;32.13;;;25.90;99.90;;;;;;4966330;28;20182;-69
2023/09/09 10:39:42;;;;;;;46.17;33.22;;;26.00;99.90;;;;;;4963256;28;20185;-62
2023/09/09 10:42:09;;;;;;;48.75;34.42;;;26.00;99.90;;;;;;4985926;28;20209;-65
2023/09/09 10:44:35;;;;;;;39.42;30.80;;;26.10;99.90;;;;;;4992243;28;20325;-63
2023/09/09 10:47:01;;;;;;;45.17;33.13;;;26.10;99.90;;;;;;4971433;28;20186;-65
2023/09/09 10:49:30;;;;;;;49.42;37.05;;;26.20;99.90;;;;;;4966453;28;20182;-62
2023/09/09 10:51:56;;;;;;;49.38;36.05;;;26.20;99.90;;;;;;4972381;28;20189;-60
2023/09/09 10:54:24;;;;;;;47.50;33.55;;;26.30;99.90;;;;;;4973806;28;20184;-63
2023/09/09 10:56:52;;;;;;;47.60;36.42;;;26.30;99.90;;;;;;4972493;28;20663;-63
2023/09/09 10:59:20;;;;;;;48.63;35.55;;;26.30;99.90;;;;;;4971446;28;20269;-62
2023/09/09 11:01:48;;;;;;;46.92;35.58;;;26.40;99.90;;;;;;4965241;28;20269;-62
2023/09/09 11:04:19;;;;;;;48.20;34.88;;;26.50;99.90;;;;;;4967104;28;20185;-61
2023/09/09 11:06:59;;;;;;;48.83;35.58;;;26.50;99.90;;;;;;4963106;28;20190;-61
2023/09/09 11:09:29;;;;;;;43.90;34.17;;;26.50;99.90;;;;;;4960546;28;20189;-59
2023/09/09 11:11:56;;;;;;;45.03;33.33;;;26.50;99.90;;;;;;4972475;28;20188;-62
2023/09/09 11:14:27;;;;;;;45.80;31.85;;;26.60;99.90;;;;;;4965599;28;20208;-61
2023/09/09 11:16:54;;;;;;;39.38;30.42;;;26.60;99.90;;;;;;4969206;28;20189;-62
2023/09/09 11:19:25;;;;;;;36.78;29.08;;;26.60;99.90;;;;;;4972146;28;20605;-61
2023/09/09 11:21:52;;;;;;;39.03;28.50;;;26.60;99.90;;;;;;4972294;28;20185;-61
2023/09/09 11:24:19;;;;;;;32.78;25.75;;;26.60;99.90;;;;;;4967873;28;20269;-62
2023/09/09 11:26:48;;;;;;;32.53;23.67;;;26.70;99.90;;;;;;4969496;28;20736;-61
2023/09/09 11:29:15;;;;;;;31.40;22.38;;;26.70;99.90;;;;;;4972295;28;20190;-63
2023/09/09 11:31:41;;;;;;;32.50;23.77;;;26.80;99.90;;;;;;4971920;28;20480;-66
2023/09/09 11:34:07;;;;;;;38.20;25.02;;;26.80;99.90;;;;;;4970124;28;20646;-63
2023/09/09 11:36:33;;;;;;;28.38;23.50;;;26.80;99.90;;;;;;4967135;28;20186;-65
2023/09/09 11:39:01;;;;;;;40.13;25.75;;;26.80;99.90;;;;;;4966107;28;20219;-65
2023/09/09 11:41:28;;;;;;;34.50;26.30;;;26.90;99.90;;;;;;4967849;28;20580;-61
2023/09/09 11:44:06;;;;;;;38.95;29.67;;;27.00;99.90;;;;;;4968124;28;20724;-63
2023/09/09 11:46:41;;;;;;;37.58;27.40;;;27.00;99.90;;;;;;4975725;28;20259;-64
2023/09/09 11:49:08;;;;;;;35.67;27.83;;;27.00;99.90;;;;;;4982415;28;20185;-61
2023/09/09 11:51:35;;;;;;;41.95;28.42;;;27.10;99.90;;;;;;4967102;28;20284;-64
2023/09/09 11:54:02;;;;;;;38.28;30.42;;;27.10;99.90;;;;;;4970940;28;20260;-62
2023/09/09 11:56:29;;;;;;;40.22;28.17;;;27.10;99.90;;;;;;4970035;28;20181;-67
2023/09/09 11:58:55;;;;;;;35.70;26.05;;;27.10;99.90;;;;;;4970179;28;20322;-62
2023/09/09 12:01:22;;;;;;;36.40;26.65;;;27.10;99.90;;;;;;4969699;28;20192;-63
2023/09/09 12:03:49;;;;;;;31.92;24.10;;;27.20;99.90;;;;;;4962851;28;20221;-62
2023/09/09 12:06:21;;;;;;;31.42;23.65;;;27.20;99.90;;;;;;4969424;28;20193;-63
2023/09/09 12:08:49;;;;;;;34.58;24.08;;;27.20;99.90;;;;;;4968217;28;20187;-64
2023/09/09 12:11:18;;;;;;;31.77;25.20;;;27.20;99.90;;;;;;4973577;28;20689;-62
2023/09/09 12:13:45;;;;;;;31.58;22.70;;;27.30;99.90;;;;;;4971257;28;20256;-62
2023/09/09 12:16:11;;;;;;;30.73;22.58;;;27.30;99.90;;;;;;4967657;28;20300;-68
2023/09/09 12:18:38;;;;;;;29.45;22.98;;;27.30;99.90;;;;;;4959683;28;20190;-63
2023/09/09 12:21:10;;;;;;;31.00;23.25;;;27.30;99.90;;;;;;4965072;28;20185;-65
2023/09/09 12:23:38;;;;;;;31.10;22.02;;;27.30;99.90;;;;;;4966915;28;20662;-62
2023/09/09 12:26:11;;;;;;;24.42;19.85;;;27.30;99.90;;;;;;4964107;28;20312;-62
2023/09/09 12:28:41;;;;;;;27.80;19.95;;;27.40;99.90;;;;;;4967437;28;20193;-64